Nearby METAR Reports

 

KAFF - US Air Force Academy
Distance from station: W 3mi, 4km
Updated: Wed, Dec-08-2021 8:29am MST
Mostly cloudy
Mostly cloudy
 Wind from calm
Wind: Calm
Temperature: 34°F , 1°C
Dew Point: 5°F , -15°C
Humidity: 29%
Barometer: 29.87 inHg , 1011.5 hPa
Clouds: Mostly cloudy
Visibility: 10 miles , 16 km
Cloud details: Partly cloudy 15000 ft
Mostly cloudy 20000 ft
2021/12/08 15:29 KAFF 081529Z 00000KT 10SM SCT150 BKN200 01/M15 A2987 RMK SLP144
KCOS - Colorado Springs Municipal
Distance from station: SSE 11mi, 18km
Updated: Wed, Dec-08-2021 8:54am MST
Mostly cloudy
Mostly cloudy
 Wind from calm
Wind: Calm
Temperature: 45°F , 7°C
Dew Point: 9°F , -13°C
Humidity: 23%
Barometer: 29.90 inHg , 1012.5 hPa
Clouds: Mostly cloudy
Visibility: 10 miles , 16 km
Cloud details: Partly cloudy 14000 ft
Mostly cloudy 25000 ft
2021/12/08 15:54 KCOS 081554Z 00000KT 10SM SCT140 BKN250 07/M13 A2990 RMK AO2 SLP136 ACSL SW T00721128
 
KFLY - Colorado Springs Meadow
Distance from station: E 11mi, 18km
Updated: Wed, Dec-08-2021 8:35am MST
Clear
Clear
 Wind from SE
Wind: SE 8 mph , 13 km/h
Barometer: 29.91 inHg , 1012.9 hPa
Clouds: Clear
Visibility: 10 miles , 16 km
2021/12/08 15:35 KFLY 081535Z AUTO 13007KT 10SM CLR A2991 RMK AO2
KCWN - Cheyenne Mountain
Distance from station: SSW 15mi, 24km
Updated: Mon, Nov-15-2021 7:58am MST
NOT Current
Clear
Clear
 Wind from SE
Wind: SE 12 mph , 19 km/h
Temperature: 61°F , 16°C
Dew Point: 21°F , -6°C
Humidity: 22%
Barometer: 30.20 inHg , 1022.7 hPa
Clouds: Clear
Visibility: 10 miles , 16 km
2021/11/15 14:58 KCWN 151458Z AUTO 14010KT 10SM CLR 16/M06 A3020 RMK AO2 SLP075 T01581065 52016 $
 
KMNH - Monument/Elbert
Distance from station: NNE 19mi, 30km
Updated: Wed, Dec-08-2021 8:35am MST
Clear
Clear
 Wind from SSE
Wind: SSE 8 mph , 13 km/h
Temperature: 41°F , 5°C
Wind Chill: 36°F , 2°C
Dew Point: 5°F , -15°C
Humidity: 22%
Barometer: 29.88 inHg , 1011.9 hPa
Clouds: Clear
Visibility: 10 miles , 16 km
2021/12/08 15:35 KMNH 081535Z AUTO 15007KT 10SM CLR 05/M15 A2988 RMK AO2
KFCS - Fort Carson
Distance from station: S 20mi, 33km
Updated: Wed, Dec-08-2021 7:58am MST
Clear
Clear
 Wind from WNW
Wind: WNW 3 mph , 6 km/h
Temperature: 37°F , 3°C
Dew Point: 1°F , -17°C
Humidity: 22%
Barometer: 29.88 inHg , 1011.9 hPa
Clouds: Clear
Visibility: 10 miles , 16 km
2021/12/08 14:58 KFCS 081458Z AUTO 29003KT 10SM CLR 03/M17 A2988 RMK AO2 SLP162 T00311166 58001 $
 
KABH - Ellicot
Distance from station: ESE 29mi, 46km
Updated: Wed, Dec-08-2021 7:58am MST
Clear
Clear
 Wind from calm
Wind: Calm
Temperature: 28°F , -2°C
Dew Point: 9°F , -13°C
Humidity: 43%
Barometer: 29.89 inHg , 1012.2 hPa
Clouds: Clear
Visibility: 10 miles , 16 km
2021/12/08 14:58 KABH 081458Z AUTO 00000KT 10SM CLR M02/M13 A2989 RMK AO2 SLP174 T10251134 58006
K1V6 - Canon City
Distance from station: SSW 41mi, 65km
Updated: Wed, Dec-08-2021 8:35am MST
Clear
Clear
 Wind from W
Wind: W 20 mph , 31 km/h, Gust: 30 mph , 48 km/h
Temperature: 46°F , 8°C
Wind Chill: 38°F , 3°C
Dew Point: 14°F , -10°C
Humidity: 27%
Barometer: 29.88 inHg , 1011.9 hPa
Clouds: Clear
Visibility: 10 miles , 16 km
2021/12/08 15:35 K1V6 081535Z AUTO 28017G26KT 10SM CLR 08/M10 A2988 RMK AO2
 
K4BM - Wilkerson Pass
Distance from station: W 41mi, 65km
Updated: Wed, Dec-08-2021 8:35am MST
Clear
Clear
 Wind from SSW
Wind: SSW 16 mph , 26 km/h, Gust: 22 mph , 35 km/h
Temperature: 23°F , -5°C
Wind Chill: 10°F , -12°C
Dew Point: -0°F , -18°C
Humidity: 36%
Barometer: 30.02 inHg , 1016.6 hPa
Clouds: Clear
Visibility: 10 miles , 16 km
2021/12/08 15:35 K4BM 081535Z AUTO 20014G19KT 10SM CLR M05/M18 A3002 RMK AO2
KAPA - Denver/Arapahoe
Distance from station: N 42mi, 68km
Updated: Wed, Dec-08-2021 8:53am MST
Mostly cloudy
Mostly cloudy
 Wind from SE
Wind: SE 6 mph , 9 km/h
Temperature: 43°F , 6°C
Wind Chill: 39°F , 4°C
Dew Point: 10°F , -12°C
Humidity: 26%
Barometer: 29.82 inHg , 1009.8 hPa
Clouds: Mostly cloudy
Visibility: 10 miles , 16 km
Cloud details: Partly cloudy 12000 ft
Mostly cloudy 20000 ft
2021/12/08 15:53 KAPA 081553Z 14005KT 10SM SCT120 BKN200 06/M12 A2982 RMK AO2 SLP102 T00611122
 
KPUB - Pueblo
Distance from station: SSE 49mi, 79km
Updated: Wed, Dec-08-2021 8:53am MST
Clear
Clear
 Wind from calm
Wind: Calm
Temperature: 30°F , -1°C
Dew Point: 12°F , -11°C
Humidity: 47%
Barometer: 29.88 inHg , 1011.9 hPa
Clouds: Clear
Visibility: 9 miles , 14 km
2021/12/08 15:53 KPUB 081553Z 00000KT 9SM CLR M01/M11 A2988 RMK AO2 SLP140 T10061111